sensor_id;sensor_type;location;lat;lon;timestamp;temperature;humidity
22682;DHT22;11508;50.856;4.380;2023-11-19T00:02:10;13.50;99.90
22682;DHT22;11508;50.856;4.380;2023-11-19T00:08:15;13.40;99.90
22682;DHT22;11508;50.856;4.380;2023-11-19T00:15:08;13.40;99.90
22682;DHT22;11508;50.856;4.380;2023-11-19T00:18:01;13.40;99.90
22682;DHT22;11508;50.856;4.380;2023-11-19T00:30:27;13.50;99.90
22682;DHT22;11508;50.856;4.380;2023-11-19T00:41:33;13.60;99.90
22682;DHT22;11508;50.856;4.380;2023-11-19T00:49:57;13.50;99.90
22682;DHT22;11508;50.856;4.380;2023-11-19T00:53:26;13.60;99.90
22682;DHT22;11508;50.856;4.380;2023-11-19T00:55:57;13.60;99.90
22682;DHT22;11508;50.856;4.380;2023-11-19T00:58:59;13.60;99.90
22682;DHT22;11508;50.856;4.380;2023-11-19T01:02:33;13.60;99.90
22682;DHT22;11508;50.856;4.380;2023-11-19T01:05:40;13.60;99.90
22682;DHT22;11508;50.856;4.380;2023-11-19T01:08:34;13.60;99.90
22682;DHT22;11508;50.856;4.380;2023-11-19T01:11:58;13.60;99.90
22682;DHT22;11508;50.856;4.380;2023-11-19T01:15:02;13.40;99.90
22682;DHT22;11508;50.856;4.380;2023-11-19T01:24:33;13.60;99.90
22682;DHT22;11508;50.856;4.380;2023-11-19T01:27:11;13.60;99.90
22682;DHT22;11508;50.856;4.380;2023-11-19T01:30:30;13.70;99.90
22682;DHT22;11508;50.856;4.380;2023-11-19T01:33:48;13.60;99.90
22682;DHT22;11508;50.856;4.380;2023-11-19T01:39:39;13.60;99.90
22682;DHT22;11508;50.856;4.380;2023-11-19T01:48:49;13.50;99.90
22682;DHT22;11508;50.856;4.380;2023-11-19T01:51:16;13.50;99.90
22682;DHT22;11508;50.856;4.380;2023-11-19T01:56:48;13.50;99.90
22682;DHT22;11508;50.856;4.380;2023-11-19T01:59:32;13.40;99.90
22682;DHT22;11508;50.856;4.380;2023-11-19T02:12:02;13.50;99.90
22682;DHT22;11508;50.856;4.380;2023-11-19T02:18:33;13.40;99.90
22682;DHT22;11508;50.856;4.380;2023-11-19T02:52:58;13.30;99.90
22682;DHT22;11508;50.856;4.380;2023-11-19T02:56:10;13.30;99.90
22682;DHT22;11508;50.856;4.380;2023-11-19T03:04:35;13.20;99.90
22682;DHT22;11508;50.856;4.380;2023-11-19T03:07:19;13.30;99.90
22682;DHT22;11508;50.856;4.380;2023-11-19T03:10:05;12.90;99.90
22682;DHT22;11508;50.856;4.380;2023-11-19T03:13:12;13.20;99.90
22682;DHT22;11508;50.856;4.380;2023-11-19T03:15:50;13.10;99.90
22682;DHT22;11508;50.856;4.380;2023-11-19T03:18:23;13.10;99.90
22682;DHT22;11508;50.856;4.380;2023-11-19T03:24:36;12.70;99.90
22682;DHT22;11508;50.856;4.380;2023-11-19T03:34:02;13.00;99.90
22682;DHT22;11508;50.856;4.380;2023-11-19T03:40:30;12.90;99.90
22682;DHT22;11508;50.856;4.380;2023-11-19T03:43:25;13.00;99.90
22682;DHT22;11508;50.856;4.380;2023-11-19T03:45:55;12.80;99.90
22682;DHT22;11508;50.856;4.380;2023-11-19T03:48:38;12.80;99.90
22682;DHT22;11508;50.856;4.380;2023-11-19T03:51:22;12.80;99.90
22682;DHT22;11508;50.856;4.380;2023-11-19T03:56:25;12.70;99.90
22682;DHT22;11508;50.856;4.380;2023-11-19T03:59:22;12.70;99.90
22682;DHT22;11508;50.856;4.380;2023-11-19T04:04:42;12.60;99.90
22682;DHT22;11508;50.856;4.380;2023-11-19T04:07:24;12.60;99.90
22682;DHT22;11508;50.856;4.380;2023-11-19T04:10:03;12.60;99.90
22682;DHT22;11508;50.856;4.380;2023-11-19T04:12:53;12.40;99.90
22682;DHT22;11508;50.856;4.380;2023-11-19T04:18:20;12.60;99.90
22682;DHT22;11508;50.856;4.380;2023-11-19T04:24:54;12.60;99.90
22682;DHT22;11508;50.856;4.380;2023-11-19T04:30:44;12.60;99.90
22682;DHT22;11508;50.856;4.380;2023-11-19T04:33:15;12.60;99.90
22682;DHT22;11508;50.856;4.380;2023-11-19T04:35:56;12.50;99.90
22682;DHT22;11508;50.856;4.380;2023-11-19T04:44:34;12.80;99.90
22682;DHT22;11508;50.856;4.380;2023-11-19T04:47:30;12.70;99.90
22682;DHT22;11508;50.856;4.380;2023-11-19T04:57:11;12.50;99.90
22682;DHT22;11508;50.856;4.380;2023-11-19T05:00:22;12.60;99.90
22682;DHT22;11508;50.856;4.380;2023-11-19T05:03:00;12.60;99.90
22682;DHT22;11508;50.856;4.380;2023-11-19T05:12:26;12.50;99.90
22682;DHT22;11508;50.856;4.380;2023-11-19T05:15:26;12.50;99.90
22682;DHT22;11508;50.856;4.380;2023-11-19T05:18:51;12.10;99.90
22682;DHT22;11508;50.856;4.380;2023-11-19T05:25:01;12.30;99.90
22682;DHT22;11508;50.856;4.380;2023-11-19T05:30:56;12.30;99.90
22682;DHT22;11508;50.856;4.380;2023-11-19T05:33:48;12.30;99.90
22682;DHT22;11508;50.856;4.380;2023-11-19T05:36:38;12.30;99.90
22682;DHT22;11508;50.856;4.380;2023-11-19T05:42:43;12.20;99.90
22682;DHT22;11508;50.856;4.380;2023-11-19T05:45:24;12.30;99.90
22682;DHT22;11508;50.856;4.380;2023-11-19T05:48:02;12.00;99.90
22682;DHT22;11508;50.856;4.380;2023-11-19T05:50:39;12.30;99.90
22682;DHT22;11508;50.856;4.380;2023-11-19T05:56:00;12.30;99.90
22682;DHT22;11508;50.856;4.380;2023-11-19T06:10:55;12.20;99.90
22682;DHT22;11508;50.856;4.380;2023-11-19T06:13:59;12.10;99.90
22682;DHT22;11508;50.856;4.380;2023-11-19T06:17:21;12.10;99.90
22682;DHT22;11508;50.856;4.380;2023-11-19T06:20:32;12.10;99.90
22682;DHT22;11508;50.856;4.380;2023-11-19T06:25:50;12.00;99.90
22682;DHT22;11508;50.856;4.380;2023-11-19T06:28:38;12.00;99.90
22682;DHT22;11508;50.856;4.380;2023-11-19T06:31:17;12.00;99.90
22682;DHT22;11508;50.856;4.380;2023-11-19T06:34:22;12.00;99.90
22682;DHT22;11508;50.856;4.380;2023-11-19T06:37:05;12.00;99.90
22682;DHT22;11508;50.856;4.380;2023-11-19T06:39:39;12.00;99.90
22682;DHT22;11508;50.856;4.380;2023-11-19T06:42:24;12.00;99.90
22682;DHT22;11508;50.856;4.380;2023-11-19T06:45:53;12.00;99.90
22682;DHT22;11508;50.856;4.380;2023-11-19T06:48:40;11.90;99.90
22682;DHT22;11508;50.856;4.380;2023-11-19T06:51:33;11.90;99.90
22682;DHT22;11508;50.856;4.380;2023-11-19T06:57:40;11.90;99.90
22682;DHT22;11508;50.856;4.380;2023-11-19T07:01:08;11.80;99.90
22682;DHT22;11508;50.856;4.380;2023-11-19T07:03:55;11.90;99.90
22682;DHT22;11508;50.856;4.380;2023-11-19T07:10:16;11.80;99.90
22682;DHT22;11508;50.856;4.380;2023-11-19T07:13:20;11.80;99.90
22682;DHT22;11508;50.856;4.380;2023-11-19T07:16:27;12.10;99.90
22682;DHT22;11508;50.856;4.380;2023-11-19T07:19:06;12.00;99.90
22682;DHT22;11508;50.856;4.380;2023-11-19T07:22:22;11.90;99.90
22682;DHT22;11508;50.856;4.380;2023-11-19T07:25:32;11.90;99.90
22682;DHT22;11508;50.856;4.380;2023-11-19T07:28:04;11.90;99.90
22682;DHT22;11508;50.856;4.380;2023-11-19T07:30:53;12.00;99.90
22682;DHT22;11508;50.856;4.380;2023-11-19T07:33:39;12.40;99.90
22682;DHT22;11508;50.856;4.380;2023-11-19T07:36:45;12.00;99.90
22682;DHT22;11508;50.856;4.380;2023-11-19T07:40:07;12.00;99.90
22682;DHT22;11508;50.856;4.380;2023-11-19T07:42:40;12.00;99.90
22682;DHT22;11508;50.856;4.380;2023-11-19T07:45:32;12.00;99.90
22682;DHT22;11508;50.856;4.380;2023-11-19T07:48:46;12.00;99.90
22682;DHT22;11508;50.856;4.380;2023-11-19T07:51:53;11.90;99.90
22682;DHT22;11508;50.856;4.380;2023-11-19T08:04:07;12.00;99.90
22682;DHT22;11508;50.856;4.380;2023-11-19T08:07:10;12.00;99.90
22682;DHT22;11508;50.856;4.380;2023-11-19T08:10:27;12.00;99.90
22682;DHT22;11508;50.856;4.380;2023-11-19T08:13:06;12.00;99.90
22682;DHT22;11508;50.856;4.380;2023-11-19T08:23:54;12.10;99.90
22682;DHT22;11508;50.856;4.380;2023-11-19T08:33:31;12.00;99.90
22682;DHT22;11508;50.856;4.380;2023-11-19T08:42:31;12.30;99.90
22682;DHT22;11508;50.856;4.380;2023-11-19T08:45:55;12.30;99.90
22682;DHT22;11508;50.856;4.380;2023-11-19T08:49:23;12.20;99.90
22682;DHT22;11508;50.856;4.380;2023-11-19T09:01:32;11.80;99.90
22682;DHT22;11508;50.856;4.380;2023-11-19T09:11:20;12.40;99.90
22682;DHT22;11508;50.856;4.380;2023-11-19T09:14:24;11.90;99.90
22682;DHT22;11508;50.856;4.380;2023-11-19T09:17:27;12.30;99.90
22682;DHT22;11508;50.856;4.380;2023-11-19T09:20:35;12.40;99.90
22682;DHT22;11508;50.856;4.380;2023-11-19T09:23:18;12.50;99.90
22682;DHT22;11508;50.856;4.380;2023-11-19T09:38:51;12.40;99.90
22682;DHT22;11508;50.856;4.380;2023-11-19T09:41:54;12.40;99.90
22682;DHT22;11508;50.856;4.380;2023-11-19T09:54:34;12.50;99.90
22682;DHT22;11508;50.856;4.380;2023-11-19T10:00:30;12.70;99.90
22682;DHT22;11508;50.856;4.380;2023-11-19T10:03:39;12.50;99.90
22682;DHT22;11508;50.856;4.380;2023-11-19T10:06:19;12.50;99.90
22682;DHT22;11508;50.856;4.380;2023-11-19T10:12:27;12.60;99.90
22682;DHT22;11508;50.856;4.380;2023-11-19T10:15:14;12.70;99.90
22682;DHT22;11508;50.856;4.380;2023-11-19T10:18:55;12.60;99.90
22682;DHT22;11508;50.856;4.380;2023-11-19T10:21:56;12.50;99.90
22682;DHT22;11508;50.856;4.380;2023-11-19T10:24:43;12.70;99.90
22682;DHT22;11508;50.856;4.380;2023-11-19T10:27:43;12.80;99.90
22682;DHT22;11508;50.856;4.380;2023-11-19T10:30:41;12.80;99.90
22682;DHT22;11508;50.856;4.380;2023-11-19T10:33:36;12.90;99.90
22682;DHT22;11508;50.856;4.380;2023-11-19T10:43:21;13.50;99.90
22682;DHT22;11508;50.856;4.380;2023-11-19T10:46:53;13.10;99.90
22682;DHT22;11508;50.856;4.380;2023-11-19T10:50:07;13.80;99.90
22682;DHT22;11508;50.856;4.380;2023-11-19T10:53:04;13.60;99.90
22682;DHT22;11508;50.856;4.380;2023-11-19T10:56:01;12.90;99.90
22682;DHT22;11508;50.856;4.380;2023-11-19T10:58:45;13.00;99.90
22682;DHT22;11508;50.856;4.380;2023-11-19T11:04:52;13.20;99.90
22682;DHT22;11508;50.856;4.380;2023-11-19T11:08:01;12.70;99.90
22682;DHT22;11508;50.856;4.380;2023-11-19T11:13:10;13.30;99.90
22682;DHT22;11508;50.856;4.380;2023-11-19T11:15:51;13.20;99.90
22682;DHT22;11508;50.856;4.380;2023-11-19T11:18:41;13.10;99.90
22682;DHT22;11508;50.856;4.380;2023-11-19T11:21:45;13.10;99.90
22682;DHT22;11508;50.856;4.380;2023-11-19T11:28:03;13.00;99.90
22682;DHT22;11508;50.856;4.380;2023-11-19T11:30:59;12.90;99.90
22682;DHT22;11508;50.856;4.380;2023-11-19T11:39:23;12.80;99.90
22682;DHT22;11508;50.856;4.380;2023-11-19T11:45:47;12.90;99.90
22682;DHT22;11508;50.856;4.380;2023-11-19T11:48:28;13.00;99.90
22682;DHT22;11508;50.856;4.380;2023-11-19T11:53:42;13.20;99.90
22682;DHT22;11508;50.856;4.380;2023-11-19T11:56:40;13.30;99.90
22682;DHT22;11508;50.856;4.380;2023-11-19T12:00:02;13.50;99.90
22682;DHT22;11508;50.856;4.380;2023-11-19T12:02:55;14.00;96.60
22682;DHT22;11508;50.856;4.380;2023-11-19T12:06:21;12.10;92.10
22682;DHT22;11508;50.856;4.380;2023-11-19T12:09:13;12.60;91.00
22682;DHT22;11508;50.856;4.380;2023-11-19T12:12:26;13.70;93.50
22682;DHT22;11508;50.856;4.380;2023-11-19T12:15:19;13.60;94.60
22682;DHT22;11508;50.856;4.380;2023-11-19T12:21:03;13.40;99.90
22682;DHT22;11508;50.856;4.380;2023-11-19T12:23:58;13.30;99.00
22682;DHT22;11508;50.856;4.380;2023-11-19T12:26:38;13.30;99.90
22682;DHT22;11508;50.856;4.380;2023-11-19T12:29:26;13.10;99.90
22682;DHT22;11508;50.856;4.380;2023-11-19T12:32:00;13.00;99.90
22682;DHT22;11508;50.856;4.380;2023-11-19T12:34:44;13.00;99.90
22682;DHT22;11508;50.856;4.380;2023-11-19T12:37:15;12.90;99.90
22682;DHT22;11508;50.856;4.380;2023-11-19T12:39:51;12.90;99.90
22682;DHT22;11508;50.856;4.380;2023-11-19T12:45:48;12.80;99.90
22682;DHT22;11508;50.856;4.380;2023-11-19T12:52:19;11.80;99.90
22682;DHT22;11508;50.856;4.380;2023-11-19T12:55:03;12.80;99.90
22682;DHT22;11508;50.856;4.380;2023-11-19T12:58:03;12.80;99.90
22682;DHT22;11508;50.856;4.380;2023-11-19T13:01:04;12.40;99.90
22682;DHT22;11508;50.856;4.380;2023-11-19T13:03:41;12.90;99.90
22682;DHT22;11508;50.856;4.380;2023-11-19T13:06:23;11.80;99.90
22682;DHT22;11508;50.856;4.380;2023-11-19T13:08:52;13.10;99.90
22682;DHT22;11508;50.856;4.380;2023-11-19T13:11:36;14.20;99.90
22682;DHT22;11508;50.856;4.380;2023-11-19T13:14:12;12.60;99.90
22682;DHT22;11508;50.856;4.380;2023-11-19T13:16:42;13.10;99.90
22682;DHT22;11508;50.856;4.380;2023-11-19T13:19:29;13.20;99.90
22682;DHT22;11508;50.856;4.380;2023-11-19T13:22:04;13.20;99.90
22682;DHT22;11508;50.856;4.380;2023-11-19T13:24:38;13.30;99.90
22682;DHT22;11508;50.856;4.380;2023-11-19T13:27:26;12.60;99.90
22682;DHT22;11508;50.856;4.380;2023-11-19T13:30:06;13.40;99.90
22682;DHT22;11508;50.856;4.380;2023-11-19T13:33:11;13.10;99.90
22682;DHT22;11508;50.856;4.380;2023-11-19T13:35:41;13.00;99.90
22682;DHT22;11508;50.856;4.380;2023-11-19T13:38:17;12.90;99.90
22682;DHT22;11508;50.856;4.380;2023-11-19T13:40:56;12.90;99.90
22682;DHT22;11508;50.856;4.380;2023-11-19T13:43:34;13.00;99.90
22682;DHT22;11508;50.856;4.380;2023-11-19T13:46:12;12.00;99.90
22682;DHT22;11508;50.856;4.380;2023-11-19T13:48:46;12.40;99.90
22682;DHT22;11508;50.856;4.380;2023-11-19T13:51:13;12.90;99.90
22682;DHT22;11508;50.856;4.380;2023-11-19T13:53:40;12.90;99.90
22682;DHT22;11508;50.856;4.380;2023-11-19T13:56:08;12.90;99.90
22682;DHT22;11508;50.856;4.380;2023-11-19T13:58:39;12.80;99.90
22682;DHT22;11508;50.856;4.380;2023-11-19T14:01:09;12.70;99.90
22682;DHT22;11508;50.856;4.380;2023-11-19T14:03:41;12.80;99.90
22682;DHT22;11508;50.856;4.380;2023-11-19T14:09:26;12.90;99.90
22682;DHT22;11508;50.856;4.380;2023-11-19T14:12:16;12.40;99.90
22682;DHT22;11508;50.856;4.380;2023-11-19T14:14:54;12.80;99.90
22682;DHT22;11508;50.856;4.380;2023-11-19T14:17:33;12.90;99.90
22682;DHT22;11508;50.856;4.380;2023-11-19T14:20:44;12.90;99.90
22682;DHT22;11508;50.856;4.380;2023-11-19T14:23:35;13.00;99.90
22682;DHT22;11508;50.856;4.380;2023-11-19T14:26:03;13.10;99.90
22682;DHT22;11508;50.856;4.380;2023-11-19T14:28:57;12.90;99.90
22682;DHT22;11508;50.856;4.380;2023-11-19T14:32:18;12.90;99.90
22682;DHT22;11508;50.856;4.380;2023-11-19T14:35:26;12.60;99.90
22682;DHT22;11508;50.856;4.380;2023-11-19T14:37:59;12.60;99.90
22682;DHT22;11508;50.856;4.380;2023-11-19T14:40:47;12.40;99.90
22682;DHT22;11508;50.856;4.380;2023-11-19T14:46:58;12.40;99.90
22682;DHT22;11508;50.856;4.380;2023-11-19T14:53:28;13.40;99.90
22682;DHT22;11508;50.856;4.380;2023-11-19T14:56:15;11.40;99.90
22682;DHT22;11508;50.856;4.380;2023-11-19T14:58:47;12.50;99.90
22682;DHT22;11508;50.856;4.380;2023-11-19T15:01:16;12.50;99.90
22682;DHT22;11508;50.856;4.380;2023-11-19T15:03:51;12.50;99.90
22682;DHT22;11508;50.856;4.380;2023-11-19T15:06:48;12.50;99.90
22682;DHT22;11508;50.856;4.380;2023-11-19T15:09:23;12.50;99.90
22682;DHT22;11508;50.856;4.380;2023-11-19T15:14:52;12.50;99.90
22682;DHT22;11508;50.856;4.380;2023-11-19T15:17:25;12.60;99.90
22682;DHT22;11508;50.856;4.380;2023-11-19T15:20:54;12.60;99.90
22682;DHT22;11508;50.856;4.380;2023-11-19T15:34:43;12.80;99.90
22682;DHT22;11508;50.856;4.380;2023-11-19T15:37:36;12.90;99.90
22682;DHT22;11508;50.856;4.380;2023-11-19T15:40:09;12.60;99.90
22682;DHT22;11508;50.856;4.380;2023-11-19T15:42:56;12.80;99.90
22682;DHT22;11508;50.856;4.380;2023-11-19T15:51:40;12.90;97.20
22682;DHT22;11508;50.856;4.380;2023-11-19T15:54:41;12.80;98.30
22682;DHT22;11508;50.856;4.380;2023-11-19T15:57:53;12.90;96.80
22682;DHT22;11508;50.856;4.380;2023-11-19T16:00:37;12.60;99.30
22682;DHT22;11508;50.856;4.380;2023-11-19T16:03:34;12.80;99.90
22682;DHT22;11508;50.856;4.380;2023-11-19T16:06:17;11.60;99.00
22682;DHT22;11508;50.856;4.380;2023-11-19T16:12:01;12.50;99.90
22682;DHT22;11508;50.856;4.380;2023-11-19T16:15:11;13.60;99.90
22682;DHT22;11508;50.856;4.380;2023-11-19T16:20:48;13.30;99.90
22682;DHT22;11508;50.856;4.380;2023-11-19T16:23:20;12.40;99.90
22682;DHT22;11508;50.856;4.380;2023-11-19T16:29:36;12.20;99.90
22682;DHT22;11508;50.856;4.380;2023-11-19T16:32:18;13.20;99.90
22682;DHT22;11508;50.856;4.380;2023-11-19T16:35:05;12.10;99.90
22682;DHT22;11508;50.856;4.380;2023-11-19T16:38:00;12.00;99.90
22682;DHT22;11508;50.856;4.380;2023-11-19T16:41:27;11.80;99.90
22682;DHT22;11508;50.856;4.380;2023-11-19T16:44:04;11.50;99.90
22682;DHT22;11508;50.856;4.380;2023-11-19T16:47:21;10.50;99.90
22682;DHT22;11508;50.856;4.380;2023-11-19T16:50:22;11.60;99.90
22682;DHT22;11508;50.856;4.380;2023-11-19T16:53:31;11.60;99.90
22682;DHT22;11508;50.856;4.380;2023-11-19T16:56:13;11.70;99.90
22682;DHT22;11508;50.856;4.380;2023-11-19T16:59:03;11.50;99.90
22682;DHT22;11508;50.856;4.380;2023-11-19T17:01:44;11.50;99.90
22682;DHT22;11508;50.856;4.380;2023-11-19T17:04:48;11.50;99.90
22682;DHT22;11508;50.856;4.380;2023-11-19T17:08:00;11.60;99.90
22682;DHT22;11508;50.856;4.380;2023-11-19T17:10:40;11.60;99.90
22682;DHT22;11508;50.856;4.380;2023-11-19T17:13:16;11.70;99.90
22682;DHT22;11508;50.856;4.380;2023-11-19T17:15:58;11.60;99.90
22682;DHT22;11508;50.856;4.380;2023-11-19T17:18:35;11.60;99.90
22682;DHT22;11508;50.856;4.380;2023-11-19T17:21:17;12.00;99.90
22682;DHT22;11508;50.856;4.380;2023-11-19T17:23:45;11.70;99.90
22682;DHT22;11508;50.856;4.380;2023-11-19T17:26:16;11.70;99.90
22682;DHT22;11508;50.856;4.380;2023-11-19T17:29:13;11.70;99.90
22682;DHT22;11508;50.856;4.380;2023-11-19T17:35:27;11.70;99.90
22682;DHT22;11508;50.856;4.380;2023-11-19T17:38:11;11.70;99.90
22682;DHT22;11508;50.856;4.380;2023-11-19T17:40:58;11.70;99.90
22682;DHT22;11508;50.856;4.380;2023-11-19T17:47:51;11.60;99.90
22682;DHT22;11508;50.856;4.380;2023-11-19T17:50:25;10.90;99.90
22682;DHT22;11508;50.856;4.380;2023-11-19T17:52:58;11.60;99.90
22682;DHT22;11508;50.856;4.380;2023-11-19T17:55:42;11.50;99.90
22682;DHT22;11508;50.856;4.380;2023-11-19T17:58:25;11.50;99.90
22682;DHT22;11508;50.856;4.380;2023-11-19T18:03:57;11.40;99.90
22682;DHT22;11508;50.856;4.380;2023-11-19T18:09:50;12.10;99.90
22682;DHT22;11508;50.856;4.380;2023-11-19T18:15:24;11.30;99.90
22682;DHT22;11508;50.856;4.380;2023-11-19T18:18:24;11.70;99.90
22682;DHT22;11508;50.856;4.380;2023-11-19T18:21:03;11.70;99.90
22682;DHT22;11508;50.856;4.380;2023-11-19T18:23:35;11.80;99.90
22682;DHT22;11508;50.856;4.380;2023-11-19T18:26:06;11.80;99.90
22682;DHT22;11508;50.856;4.380;2023-11-19T18:28:42;11.80;99.90
22682;DHT22;11508;50.856;4.380;2023-11-19T18:31:09;11.80;99.90
22682;DHT22;11508;50.856;4.380;2023-11-19T18:33:50;11.30;99.90
22682;DHT22;11508;50.856;4.380;2023-11-19T18:36:21;12.60;99.90
22682;DHT22;11508;50.856;4.380;2023-11-19T18:38:55;11.80;99.90
22682;DHT22;11508;50.856;4.380;2023-11-19T18:41:31;12.90;99.90
22682;DHT22;11508;50.856;4.380;2023-11-19T18:44:03;11.80;99.90
22682;DHT22;11508;50.856;4.380;2023-11-19T18:46:53;11.90;99.90
22682;DHT22;11508;50.856;4.380;2023-11-19T18:49:27;11.90;99.90
22682;DHT22;11508;50.856;4.380;2023-11-19T18:52:03;11.90;99.90
22682;DHT22;11508;50.856;4.380;2023-11-19T18:54:49;11.90;99.90
22682;DHT22;11508;50.856;4.380;2023-11-19T18:57:14;12.00;99.90
22682;DHT22;11508;50.856;4.380;2023-11-19T18:59:40;12.00;99.90
22682;DHT22;11508;50.856;4.380;2023-11-19T19:02:06;11.90;99.90
22682;DHT22;11508;50.856;4.380;2023-11-19T19:04:32;11.90;99.90
22682;DHT22;11508;50.856;4.380;2023-11-19T19:06:58;11.90;99.90
22682;DHT22;11508;50.856;4.380;2023-11-19T19:09:26;11.90;99.90
22682;DHT22;11508;50.856;4.380;2023-11-19T19:11:52;11.80;99.90
22682;DHT22;11508;50.856;4.380;2023-11-19T19:14:18;11.80;99.90
22682;DHT22;11508;50.856;4.380;2023-11-19T19:16:44;11.70;99.90
22682;DHT22;11508;50.856;4.380;2023-11-19T19:19:09;11.70;99.90
22682;DHT22;11508;50.856;4.380;2023-11-19T19:21:35;11.70;99.90
22682;DHT22;11508;50.856;4.380;2023-11-19T19:24:03;11.70;99.90
22682;DHT22;11508;50.856;4.380;2023-11-19T19:26:32;11.70;99.90
22682;DHT22;11508;50.856;4.380;2023-11-19T19:28:57;11.70;99.90
22682;DHT22;11508;50.856;4.380;2023-11-19T19:31:24;11.70;99.90
22682;DHT22;11508;50.856;4.380;2023-11-19T19:33:50;11.70;99.90
22682;DHT22;11508;50.856;4.380;2023-11-19T19:36:29;11.70;99.90
22682;DHT22;11508;50.856;4.380;2023-11-19T19:38:55;11.60;99.90
22682;DHT22;11508;50.856;4.380;2023-11-19T19:41:21;11.60;99.90
22682;DHT22;11508;50.856;4.380;2023-11-19T19:43:49;11.60;99.90
22682;DHT22;11508;50.856;4.380;2023-11-19T19:46:15;11.60;99.90
22682;DHT22;11508;50.856;4.380;2023-11-19T19:48:40;11.60;99.90
22682;DHT22;11508;50.856;4.380;2023-11-19T19:51:07;11.70;99.90
22682;DHT22;11508;50.856;4.380;2023-11-19T19:53:34;11.70;99.90
22682;DHT22;11508;50.856;4.380;2023-11-19T19:56:03;11.70;99.90
22682;DHT22;11508;50.856;4.380;2023-11-19T19:58:29;11.70;99.90
22682;DHT22;11508;50.856;4.380;2023-11-19T20:00:55;11.60;99.90
22682;DHT22;11508;50.856;4.380;2023-11-19T20:03:21;11.70;99.90
22682;DHT22;11508;50.856;4.380;2023-11-19T20:05:46;11.70;99.90
22682;DHT22;11508;50.856;4.380;2023-11-19T20:08:12;11.70;99.90
22682;DHT22;11508;50.856;4.380;2023-11-19T20:10:38;11.80;99.90
22682;DHT22;11508;50.856;4.380;2023-11-19T20:13:04;11.80;99.90
22682;DHT22;11508;50.856;4.380;2023-11-19T20:15:35;11.80;99.90
22682;DHT22;11508;50.856;4.380;2023-11-19T20:18:03;11.90;99.90
22682;DHT22;11508;50.856;4.380;2023-11-19T20:20:28;11.90;99.90
22682;DHT22;11508;50.856;4.380;2023-11-19T20:22:56;11.90;99.90
22682;DHT22;11508;50.856;4.380;2023-11-19T20:25:21;11.90;99.90
22682;DHT22;11508;50.856;4.380;2023-11-19T20:27:47;11.90;99.90
22682;DHT22;11508;50.856;4.380;2023-11-19T20:30:14;11.90;99.90
22682;DHT22;11508;50.856;4.380;2023-11-19T20:32:40;11.90;99.90
22682;DHT22;11508;50.856;4.380;2023-11-19T20:35:07;11.90;99.90
22682;DHT22;11508;50.856;4.380;2023-11-19T20:37:33;11.90;99.90
22682;DHT22;11508;50.856;4.380;2023-11-19T20:40:03;11.90;99.90
22682;DHT22;11508;50.856;4.380;2023-11-19T20:42:30;11.90;99.90
22682;DHT22;11508;50.856;4.380;2023-11-19T20:44:56;11.90;99.90
22682;DHT22;11508;50.856;4.380;2023-11-19T20:47:22;11.90;99.90
22682;DHT22;11508;50.856;4.380;2023-11-19T20:49:47;11.90;99.90
22682;DHT22;11508;50.856;4.380;2023-11-19T20:52:13;11.90;99.90
22682;DHT22;11508;50.856;4.380;2023-11-19T20:54:39;11.80;99.90
22682;DHT22;11508;50.856;4.380;2023-11-19T20:57:05;11.70;99.90
22682;DHT22;11508;50.856;4.380;2023-11-19T20:59:30;11.70;99.90
22682;DHT22;11508;50.856;4.380;2023-11-19T21:01:56;11.70;99.90
22682;DHT22;11508;50.856;4.380;2023-11-19T21:04:22;11.60;99.90
22682;DHT22;11508;50.856;4.380;2023-11-19T21:06:49;11.50;99.90
22682;DHT22;11508;50.856;4.380;2023-11-19T21:09:16;11.50;99.90
22682;DHT22;11508;50.856;4.380;2023-11-19T21:11:42;11.50;99.90
22682;DHT22;11508;50.856;4.380;2023-11-19T21:14:07;11.50;99.90
22682;DHT22;11508;50.856;4.380;2023-11-19T21:16:34;11.50;99.90
22682;DHT22;11508;50.856;4.380;2023-11-19T21:19:00;11.40;99.90
22682;DHT22;11508;50.856;4.380;2023-11-19T21:21:27;11.50;99.90
22682;DHT22;11508;50.856;4.380;2023-11-19T21:23:52;11.50;99.90
22682;DHT22;11508;50.856;4.380;2023-11-19T21:26:18;11.60;99.90
22682;DHT22;11508;50.856;4.380;2023-11-19T21:28:44;11.60;99.90
22682;DHT22;11508;50.856;4.380;2023-11-19T21:31:11;11.60;99.90
22682;DHT22;11508;50.856;4.380;2023-11-19T21:33:36;11.60;99.90
22682;DHT22;11508;50.856;4.380;2023-11-19T21:36:03;11.70;99.90
22682;DHT22;11508;50.856;4.380;2023-11-19T21:38:29;11.70;99.90
22682;DHT22;11508;50.856;4.380;2023-11-19T21:40:55;11.70;99.90
22682;DHT22;11508;50.856;4.380;2023-11-19T21:43:20;11.70;99.90
22682;DHT22;11508;50.856;4.380;2023-11-19T21:45:47;11.60;99.90
22682;DHT22;11508;50.856;4.380;2023-11-19T21:48:13;11.70;99.90
22682;DHT22;11508;50.856;4.380;2023-11-19T21:50:39;11.70;99.90
22682;DHT22;11508;50.856;4.380;2023-11-19T21:53:07;11.60;99.90
22682;DHT22;11508;50.856;4.380;2023-11-19T21:55:33;11.50;99.90
22682;DHT22;11508;50.856;4.380;2023-11-19T21:57:59;11.50;99.90
22682;DHT22;11508;50.856;4.380;2023-11-19T22:00:25;11.50;99.90
22682;DHT22;11508;50.856;4.380;2023-11-19T22:02:51;11.60;99.90
22682;DHT22;11508;50.856;4.380;2023-11-19T22:05:17;11.50;99.90
22682;DHT22;11508;50.856;4.380;2023-11-19T22:07:46;11.50;99.90
22682;DHT22;11508;50.856;4.380;2023-11-19T22:10:14;11.60;99.90
22682;DHT22;11508;50.856;4.380;2023-11-19T22:12:40;11.60;99.90
22682;DHT22;11508;50.856;4.380;2023-11-19T22:15:07;11.60;99.90
22682;DHT22;11508;50.856;4.380;2023-11-19T22:17:33;11.60;99.90
22682;DHT22;11508;50.856;4.380;2023-11-19T22:20:03;11.60;99.90
22682;DHT22;11508;50.856;4.380;2023-11-19T22:22:29;11.40;99.90
22682;DHT22;11508;50.856;4.380;2023-11-19T22:24:55;11.50;99.90
22682;DHT22;11508;50.856;4.380;2023-11-19T22:27:21;11.50;99.90
22682;DHT22;11508;50.856;4.380;2023-11-19T22:29:47;11.50;99.90
22682;DHT22;11508;50.856;4.380;2023-11-19T22:32:12;11.50;99.90
22682;DHT22;11508;50.856;4.380;2023-11-19T22:34:38;11.50;99.90
22682;DHT22;11508;50.856;4.380;2023-11-19T22:37:04;11.50;99.90
22682;DHT22;11508;50.856;4.380;2023-11-19T22:39:30;11.60;99.90
22682;DHT22;11508;50.856;4.380;2023-11-19T22:41:56;11.60;99.90
22682;DHT22;11508;50.856;4.380;2023-11-19T22:44:22;11.70;99.90
22682;DHT22;11508;50.856;4.380;2023-11-19T22:46:49;11.70;99.90
22682;DHT22;11508;50.856;4.380;2023-11-19T22:49:14;11.70;99.90
22682;DHT22;11508;50.856;4.380;2023-11-19T22:51:40;11.70;99.90
22682;DHT22;11508;50.856;4.380;2023-11-19T22:54:06;11.70;99.90
22682;DHT22;11508;50.856;4.380;2023-11-19T22:56:32;11.80;99.90
22682;DHT22;11508;50.856;4.380;2023-11-19T22:58:57;11.80;99.90
22682;DHT22;11508;50.856;4.380;2023-11-19T23:01:23;11.80;99.90
22682;DHT22;11508;50.856;4.380;2023-11-19T23:03:49;11.90;99.90